Time;durP1;ratioP1;P1;durP2;ratioP2;P2;SDS_P1;SDS_P2;PMS_P1;PMS_P2;Temp;Humidity;BMP_temperature;BMP_pressure;BME280_temperature;BME280_humidity;BME280_pressure;Samples;Min_cycle;Max_cycle;Signal;HPM_P1;HPM_P2
2022/08/28 00:00:02;;;;;;;3.70;3.40;;;21.60;92.60;;;;;;5072429;27;20555;-70
2022/08/28 00:02:32;;;;;;;3.33;2.97;;;21.70;92.60;;;;;;5069848;28;20443;-70
2022/08/28 00:04:58;;;;;;;3.80;3.50;;;21.60;92.60;;;;;;5072594;28;20449;-70
2022/08/28 00:07:25;;;;;;;3.90;3.23;;;21.60;92.50;;;;;;5068004;28;20468;-71
2022/08/28 00:09:51;;;;;;;3.77;3.23;;;21.60;92.40;;;;;;5073503;28;20608;-71
2022/08/28 00:12:17;;;;;;;4.30;3.90;;;21.60;92.40;;;;;;5071770;28;20448;-71
2022/08/28 00:14:43;;;;;;;3.83;2.80;;;21.60;92.50;;;;;;5070183;27;20307;-70
2022/08/28 00:17:09;;;;;;;3.83;3.53;;;21.60;92.60;;;;;;5067976;28;20656;-71
2022/08/28 00:19:34;;;;;;;4.57;4.17;;;21.60;92.50;;;;;;5067978;27;20605;-71
2022/08/28 00:22:02;;;;;;;3.73;3.43;;;21.60;92.80;;;;;;5070284;28;20219;-71
2022/08/28 00:24:28;;;;;;;4.00;3.70;;;21.60;92.50;;;;;;5080915;27;20243;-71
2022/08/28 00:29:40;;;;;;;4.57;4.00;;;21.50;92.90;;;;;;5073363;28;20243;-71
2022/08/28 00:32:07;;;;;;;4.57;4.17;;;21.40;93.10;;;;;;5086119;27;20464;-69
2022/08/28 00:34:33;;;;;;;4.20;3.80;;;21.40;93.40;;;;;;5071233;28;20461;-71
2022/08/28 00:36:59;;;;;;;4.30;3.90;;;21.40;93.40;;;;;;5055001;28;20881;-70
2022/08/28 00:39:25;;;;;;;4.20;3.90;;;21.30;93.60;;;;;;5068194;28;20218;-71
2022/08/28 00:41:51;;;;;;;4.57;4.17;;;21.30;93.50;;;;;;5070512;28;20473;-70
2022/08/28 00:44:23;;;;;;;5.33;3.93;;;21.30;93.80;;;;;;5072929;28;20294;-70
2022/08/28 00:46:52;;;;;;;4.50;3.70;;;21.20;93.70;;;;;;5070866;28;20464;-70
2022/08/28 00:49:22;;;;;;;4.23;3.60;;;21.20;94.00;;;;;;5071793;28;20458;-70
2022/08/28 00:52:04;;;;;;;4.57;3.97;;;21.20;94.10;;;;;;5073058;28;20452;-71
2022/08/28 00:54:32;;;;;;;5.30;4.30;;;21.20;94.00;;;;;;5070047;28;20452;-71
2022/08/28 00:57:01;;;;;;;4.33;3.93;;;21.20;94.10;;;;;;5069972;28;20454;-71
2022/08/28 00:59:27;;;;;;;3.87;3.57;;;21.20;94.20;;;;;;5069238;27;20453;-70
2022/08/28 01:01:55;;;;;;;4.57;3.83;;;21.10;94.10;;;;;;5073058;28;20460;-71
2022/08/28 01:04:23;;;;;;;3.77;3.47;;;21.10;94.30;;;;;;5074392;28;20210;-69
2022/08/28 01:06:52;;;;;;;4.43;4.03;;;21.10;94.20;;;;;;5071724;28;20480;-70
2022/08/28 01:09:28;;;;;;;4.23;3.93;;;21.10;94.30;;;;;;5057875;28;20849;-71
2022/08/28 01:12:00;;;;;;;7.33;4.40;;;21.10;94.30;;;;;;5066327;28;20518;-71
2022/08/28 01:14:28;;;;;;;4.00;3.53;;;21.10;94.20;;;;;;5070588;28;20464;-70
2022/08/28 01:16:55;;;;;;;4.63;4.17;;;21.10;94.20;;;;;;5069636;28;20489;-71
2022/08/28 01:19:33;;;;;;;4.20;3.90;;;21.10;94.20;;;;;;5076779;28;21112;-71
2022/08/28 01:22:38;;;;;;;4.23;3.83;;;21.10;94.10;;;;;;5073004;28;20465;-69
2022/08/28 01:25:18;;;;;;;4.40;4.00;;;21.10;94.10;;;;;;5049872;28;20461;-71
2022/08/28 01:27:44;;;;;;;3.73;3.50;;;21.10;94.00;;;;;;5084509;27;20444;-70
2022/08/28 01:30:13;;;;;;;4.57;4.17;;;21.00;94.00;;;;;;5069787;27;20976;-71
2022/08/28 01:32:48;;;;;;;4.40;3.40;;;21.10;94.00;;;;;;5071923;28;20492;-70
2022/08/28 01:35:18;;;;;;;5.37;3.10;;;21.10;93.80;;;;;;5068705;28;20458;-70
2022/08/28 01:37:44;;;;;;;4.50;4.10;;;21.10;93.80;;;;;;5071451;28;20597;-71
2022/08/28 01:40:16;;;;;;;4.23;3.73;;;21.10;93.90;;;;;;5072113;28;20466;-70
2022/08/28 01:42:43;;;;;;;4.13;3.70;;;21.10;93.80;;;;;;5069973;27;20460;-71
2022/08/28 01:45:13;;;;;;;3.43;3.20;;;21.10;93.90;;;;;;5071301;28;20457;-70
2022/08/28 01:47:42;;;;;;;4.10;3.70;;;21.10;93.70;;;;;;5068577;28;20461;-70
2022/08/28 01:50:11;;;;;;;4.30;3.90;;;21.10;93.60;;;;;;5068190;28;21027;-70
2022/08/28 01:52:37;;;;;;;3.77;3.47;;;21.10;93.60;;;;;;5069312;28;20449;-71
2022/08/28 01:55:04;;;;;;;4.17;3.77;;;21.10;93.60;;;;;;5069048;28;20836;-71
2022/08/28 01:57:29;;;;;;;4.03;3.63;;;21.10;93.50;;;;;;5064517;28;20211;-70
2022/08/28 01:59:55;;;;;;;3.67;3.37;;;21.10;93.40;;;;;;5060168;28;21088;-69
2022/08/28 02:02:21;;;;;;;3.63;3.30;;;21.10;93.50;;;;;;5085052;28;20286;-70
2022/08/28 02:04:47;;;;;;;3.33;3.07;;;21.00;93.40;;;;;;5066437;28;20250;-70
2022/08/28 02:07:13;;;;;;;4.33;3.93;;;21.00;93.50;;;;;;5068352;28;20812;-70
2022/08/28 02:09:39;;;;;;;4.10;3.80;;;21.00;93.60;;;;;;5069471;28;20446;-70
2022/08/28 02:12:05;;;;;;;4.40;4.00;;;21.00;93.70;;;;;;5067784;28;20208;-70
2022/08/28 02:14:31;;;;;;;4.57;4.03;;;21.00;93.80;;;;;;5065486;28;20235;-69
2022/08/28 02:16:57;;;;;;;4.73;3.60;;;21.00;93.80;;;;;;5070397;28;20448;-71
2022/08/28 02:19:23;;;;;;;3.80;3.40;;;21.00;93.70;;;;;;5073570;28;20286;-71
2022/08/28 02:21:49;;;;;;;8.93;3.70;;;20.90;94.00;;;;;;5063410;28;20805;-71
2022/08/28 02:24:15;;;;;;;5.33;3.20;;;20.90;93.90;;;;;;5069398;28;20561;-70
2022/08/28 02:26:43;;;;;;;4.13;3.83;;;20.90;94.00;;;;;;5082965;27;20227;-71
2022/08/28 02:29:10;;;;;;;4.63;4.23;;;20.80;94.20;;;;;;5049122;28;20462;-70
2022/08/28 02:31:36;;;;;;;3.87;3.53;;;20.80;94.10;;;;;;5053863;28;20511;-70
2022/08/28 02:34:03;;;;;;;4.27;3.87;;;20.80;94.10;;;;;;5071232;28;20462;-70
2022/08/28 02:36:29;;;;;;;5.67;3.57;;;20.80;94.20;;;;;;5062341;28;20558;-70
2022/08/28 02:38:55;;;;;;;5.07;3.90;;;20.80;94.10;;;;;;5074257;27;20479;-70
2022/08/28 02:41:20;;;;;;;4.60;4.20;;;20.80;94.10;;;;;;5065865;28;20493;-70
2022/08/28 02:43:46;;;;;;;4.40;4.00;;;20.80;94.00;;;;;;5067446;28;20245;-71
2022/08/28 02:46:12;;;;;;;3.67;3.30;;;20.80;94.00;;;;;;5069232;28;20219;-70
2022/08/28 02:48:39;;;;;;;4.87;4.20;;;20.80;94.10;;;;;;5066448;28;20226;-70
2022/08/28 02:51:09;;;;;;;4.20;3.80;;;20.70;94.00;;;;;;5071064;28;20744;-70
2022/08/28 02:53:36;;;;;;;3.80;3.50;;;20.80;94.10;;;;;;5039926;27;20454;-70
2022/08/28 02:56:02;;;;;;;5.13;4.30;;;20.80;94.20;;;;;;5043210;28;20446;-69
2022/08/28 02:58:31;;;;;;;3.90;3.50;;;20.80;94.10;;;;;;5062108;28;20995;-71
2022/08/28 03:01:00;;;;;;;4.60;3.87;;;20.80;94.30;;;;;;5065164;28;20539;-69
2022/08/28 03:03:30;;;;;;;3.90;3.60;;;20.70;94.20;;;;;;5067459;28;20552;-71
2022/08/28 03:05:56;;;;;;;3.97;3.60;;;20.70;94.20;;;;;;5073090;28;20461;-70
2022/08/28 03:08:23;;;;;;;3.87;3.53;;;20.80;94.00;;;;;;5086466;27;20484;-70
2022/08/28 03:10:49;;;;;;;3.80;3.27;;;20.70;94.10;;;;;;5071125;28;21032;-70
2022/08/28 03:13:16;;;;;;;5.50;3.47;;;20.80;94.10;;;;;;5070602;28;20502;-70
2022/08/28 03:15:43;;;;;;;5.87;4.20;;;20.70;94.10;;;;;;5063955;28;20465;-69
2022/08/28 03:18:10;;;;;;;4.77;4.00;;;20.80;94.50;;;;;;5069512;28;20456;-70
2022/08/28 03:20:36;;;;;;;4.20;3.30;;;20.70;94.20;;;;;;5060488;27;20549;-71
2022/08/28 03:25:47;;;;;;;3.63;3.33;;;20.70;94.30;;;;;;5074662;28;20298;-70
2022/08/28 03:28:13;;;;;;;6.47;3.90;;;20.60;94.40;;;;;;5068215;28;20446;-71
2022/08/28 03:30:39;;;;;;;4.10;3.80;;;20.60;94.30;;;;;;5070639;28;20821;-70
2022/08/28 03:33:04;;;;;;;3.80;3.50;;;20.60;94.50;;;;;;5056154;28;20212;-70
2022/08/28 03:35:31;;;;;;;4.53;4.13;;;20.60;94.50;;;;;;5067166;28;20457;-71
2022/08/28 03:37:56;;;;;;;5.43;3.50;;;20.60;94.50;;;;;;5072359;28;20709;-70
2022/08/28 03:40:22;;;;;;;6.07;3.80;;;20.60;94.50;;;;;;5069067;28;20469;-71
2022/08/28 03:42:48;;;;;;;4.60;4.13;;;20.60;94.80;;;;;;5053201;28;20225;-70
2022/08/28 03:45:13;;;;;;;3.97;3.63;;;20.60;94.60;;;;;;5067732;28;20269;-70
2022/08/28 03:47:40;;;;;;;4.90;4.33;;;20.50;94.70;;;;;;5071484;28;20264;-70
2022/08/28 03:50:10;;;;;;;4.80;4.30;;;20.50;94.80;;;;;;5068877;28;20214;-70
2022/08/28 03:52:40;;;;;;;5.77;3.13;;;20.50;94.70;;;;;;5067327;28;20992;-71
2022/08/28 03:55:08;;;;;;;3.50;3.20;;;20.50;94.70;;;;;;5080488;28;20458;-70
2022/08/28 03:57:35;;;;;;;4.60;4.20;;;20.50;94.80;;;;;;5082594;28;20557;-70
2022/08/28 04:00:04;;;;;;;4.40;3.70;;;20.50;94.60;;;;;;5083875;28;20855;-70
2022/08/28 04:02:38;;;;;;;3.83;3.40;;;20.50;94.80;;;;;;5068426;28;20502;-70
2022/08/28 04:05:05;;;;;;;4.20;3.90;;;20.50;94.90;;;;;;5068571;28;20478;-70
2022/08/28 04:07:30;;;;;;;7.07;4.17;;;20.40;94.90;;;;;;5084952;28;20481;-71
2022/08/28 04:09:56;;;;;;;4.67;4.30;;;20.40;94.90;;;;;;5068222;28;20473;-69
2022/08/28 04:12:22;;;;;;;5.30;4.03;;;20.40;95.10;;;;;;5064075;28;20215;-70
2022/08/28 04:14:48;;;;;;;7.60;3.67;;;20.40;95.10;;;;;;5049481;28;20215;-70
2022/08/28 04:17:13;;;;;;;4.10;3.63;;;20.30;95.10;;;;;;5053623;28;20756;-71
2022/08/28 04:19:39;;;;;;;3.73;3.13;;;20.30;95.00;;;;;;5075477;27;20234;-71
2022/08/28 04:22:07;;;;;;;6.60;3.47;;;20.30;95.10;;;;;;5077052;28;20247;-71
2022/08/28 04:24:32;;;;;;;4.33;3.70;;;20.30;95.20;;;;;;5063762;28;20564;-70
2022/08/28 04:26:58;;;;;;;3.87;3.57;;;20.30;95.10;;;;;;5059661;28;20473;-70
2022/08/28 04:29:24;;;;;;;3.70;3.40;;;20.30;95.10;;;;;;5065153;28;20280;-71
2022/08/28 04:31:50;;;;;;;4.10;3.30;;;20.30;95.20;;;;;;5067298;28;20239;-71
2022/08/28 04:34:15;;;;;;;5.10;3.80;;;20.20;95.20;;;;;;5063359;28;20219;-70
2022/08/28 04:36:41;;;;;;;3.37;3.07;;;20.20;95.20;;;;;;5072421;28;20222;-70
2022/08/28 04:39:09;;;;;;;5.60;3.90;;;20.20;95.20;;;;;;5067212;27;20311;-70
2022/08/28 04:41:38;;;;;;;5.00;3.97;;;20.20;95.10;;;;;;5064309;28;20227;-71
2022/08/28 04:44:05;;;;;;;4.63;4.23;;;20.20;95.10;;;;;;5065940;28;20480;-70
2022/08/28 04:46:31;;;;;;;3.60;3.30;;;20.20;95.10;;;;;;5068644;27;20473;-71
2022/08/28 04:48:57;;;;;;;3.97;3.57;;;20.20;95.20;;;;;;5064569;28;20972;-72
2022/08/28 04:51:23;;;;;;;4.20;3.30;;;20.10;95.20;;;;;;5062957;28;20462;-69
2022/08/28 04:53:48;;;;;;;4.73;3.33;;;20.20;95.10;;;;;;5070743;28;20690;-71
2022/08/28 04:56:14;;;;;;;4.30;3.90;;;20.20;95.00;;;;;;5067894;28;20215;-70
2022/08/28 04:58:42;;;;;;;4.50;3.37;;;20.30;95.00;;;;;;5065248;28;20208;-71
2022/08/28 05:01:18;;;;;;;3.63;3.33;;;20.20;95.10;;;;;;5062992;28;20256;-70
2022/08/28 05:03:45;;;;;;;4.13;3.50;;;20.20;95.00;;;;;;5045967;28;20449;-70
2022/08/28 05:06:13;;;;;;;5.30;3.77;;;20.20;95.10;;;;;;5053073;28;20460;-71
2022/08/28 05:08:39;;;;;;;3.87;3.47;;;20.20;95.00;;;;;;5061068;28;20544;-71
2022/08/28 05:11:11;;;;;;;3.23;3.00;;;20.20;95.00;;;;;;5069488;28;20457;-70
2022/08/28 05:13:37;;;;;;;6.03;3.70;;;20.20;95.00;;;;;;5038776;28;20476;-69
2022/08/28 05:16:04;;;;;;;4.23;3.30;;;20.20;95.20;;;;;;5069515;28;21055;-71
2022/08/28 05:18:29;;;;;;;4.37;3.50;;;20.10;95.20;;;;;;5064296;28;20223;-70
2022/08/28 05:20:56;;;;;;;3.90;3.20;;;20.10;95.20;;;;;;5043982;28;20535;-70
2022/08/28 05:23:22;;;;;;;5.77;3.33;;;20.10;95.30;;;;;;5060809;28;20290;-70
2022/08/28 05:25:48;;;;;;;4.57;4.10;;;20.00;95.50;;;;;;5063687;28;20463;-70
2022/08/28 05:28:18;;;;;;;5.23;3.03;;;20.00;95.50;;;;;;5065330;28;20471;-70
2022/08/28 05:30:44;;;;;;;4.40;3.30;;;20.10;95.40;;;;;;5064346;27;20223;-70
2022/08/28 05:33:12;;;;;;;4.23;3.27;;;20.10;95.40;;;;;;5049572;28;20481;-71
2022/08/28 05:35:41;;;;;;;4.03;3.20;;;20.10;95.40;;;;;;5067515;28;20988;-70
2022/08/28 05:38:07;;;;;;;3.40;2.83;;;20.10;95.50;;;;;;5068501;28;20458;-70
2022/08/28 05:40:43;;;;;;;3.70;3.40;;;20.00;95.50;;;;;;5048821;28;20477;-70
2022/08/28 05:43:09;;;;;;;3.70;3.30;;;20.00;95.50;;;;;;5066112;28;20506;-70
2022/08/28 05:45:35;;;;;;;5.40;2.93;;;20.00;95.40;;;;;;5069626;28;20535;-70
2022/08/28 05:48:01;;;;;;;6.40;3.93;;;20.00;95.30;;;;;;5055461;28;20480;-71
2022/08/28 05:50:26;;;;;;;4.40;3.23;;;20.00;95.50;;;;;;5065420;28;20215;-70
2022/08/28 05:52:52;;;;;;;5.03;3.10;;;20.00;95.30;;;;;;5065779;28;20246;-70
2022/08/28 05:55:18;;;;;;;3.10;2.80;;;20.00;95.40;;;;;;5063051;28;20222;-70
2022/08/28 05:57:44;;;;;;;5.07;3.50;;;20.00;95.40;;;;;;5061992;28;20645;-70
2022/08/28 06:00:11;;;;;;;5.90;3.43;;;20.10;95.40;;;;;;5060153;28;20666;-69
2022/08/28 06:02:38;;;;;;;3.80;3.50;;;20.10;95.40;;;;;;5064540;28;20219;-70
2022/08/28 06:05:04;;;;;;;3.90;3.00;;;20.10;95.40;;;;;;5062718;28;20466;-69
2022/08/28 06:07:32;;;;;;;4.27;3.07;;;20.00;95.50;;;;;;5079550;28;20856;-71
2022/08/28 06:09:57;;;;;;;4.53;3.60;;;20.00;95.40;;;;;;5070684;28;20960;-71
2022/08/28 06:12:23;;;;;;;4.30;3.30;;;20.10;95.40;;;;;;5070010;28;20464;-71
2022/08/28 06:14:49;;;;;;;2.97;2.70;;;20.10;95.40;;;;;;5067581;28;20212;-70
2022/08/28 06:17:15;;;;;;;5.40;3.90;;;20.10;95.50;;;;;;5057272;28;20208;-70
2022/08/28 06:19:40;;;;;;;3.70;3.37;;;20.10;95.40;;;;;;5067556;28;20227;-71
2022/08/28 06:22:06;;;;;;;3.47;3.20;;;20.00;95.40;;;;;;5064275;28;20603;-70
2022/08/28 06:24:33;;;;;;;5.40;3.20;;;20.00;95.30;;;;;;5079010;28;20306;-69
2022/08/28 06:26:59;;;;;;;5.33;3.00;;;20.00;95.40;;;;;;5065818;28;20560;-70
2022/08/28 06:29:26;;;;;;;3.70;2.97;;;20.00;95.40;;;;;;5048438;28;20509;-71
2022/08/28 06:31:58;;;;;;;3.33;2.80;;;20.10;95.50;;;;;;5066428;28;20457;-71
2022/08/28 06:34:25;;;;;;;3.40;3.00;;;20.00;95.30;;;;;;5059391;27;20470;-70
2022/08/28 06:36:50;;;;;;;3.43;3.03;;;20.10;95.40;;;;;;5065797;28;20462;-70
2022/08/28 06:39:16;;;;;;;4.77;3.20;;;20.10;95.30;;;;;;5068873;28;20461;-70
2022/08/28 06:41:42;;;;;;;3.63;3.03;;;20.10;95.30;;;;;;5060255;28;20244;-70
2022/08/28 06:44:20;;;;;;;5.03;3.13;;;20.10;95.20;;;;;;5065055;28;20226;-71
2022/08/28 06:46:48;;;;;;;5.03;3.13;;;20.10;95.20;;;;;;5069219;28;20445;-71
2022/08/28 06:49:14;;;;;;;5.00;3.67;;;20.10;95.30;;;;;;5043753;28;20474;-70
2022/08/28 06:51:40;;;;;;;4.20;3.27;;;20.10;95.40;;;;;;5065884;28;20457;-70
2022/08/28 06:54:06;;;;;;;3.97;2.83;;;20.10;95.40;;;;;;5080916;27;20250;-70
2022/08/28 06:56:33;;;;;;;3.73;3.03;;;20.10;95.50;;;;;;5065357;28;20454;-71
2022/08/28 06:58:59;;;;;;;5.03;2.73;;;20.10;95.40;;;;;;5064997;28;20238;-70
2022/08/28 07:01:31;;;;;;;3.20;3.00;;;20.20;95.40;;;;;;5083019;27;20473;-70
2022/08/28 07:04:00;;;;;;;3.93;3.03;;;20.20;95.30;;;;;;5065184;28;20456;-70
2022/08/28 07:06:29;;;;;;;7.90;3.50;;;20.20;95.20;;;;;;5065456;28;20541;-70
2022/08/28 07:08:54;;;;;;;2.80;2.60;;;20.20;95.10;;;;;;5070866;27;20480;-69
2022/08/28 07:11:24;;;;;;;3.40;2.63;;;20.20;95.20;;;;;;5066311;28;20538;-70
2022/08/28 07:13:51;;;;;;;4.93;3.00;;;20.30;95.30;;;;;;5069345;28;20230;-71
2022/08/28 07:16:19;;;;;;;3.90;2.73;;;20.30;95.20;;;;;;5068600;28;20476;-71
2022/08/28 07:18:45;;;;;;;7.10;3.00;;;20.30;95.50;;;;;;5071419;28;20476;-70
2022/08/28 07:21:12;;;;;;;5.57;2.70;;;20.40;95.20;;;;;;5072510;28;20516;-70
2022/08/28 07:23:40;;;;;;;3.40;3.10;;;20.40;95.20;;;;;;5070513;27;20459;-70
2022/08/28 07:26:13;;;;;;;3.70;2.60;;;20.40;95.10;;;;;;5069011;28;20490;-71
2022/08/28 07:28:39;;;;;;;4.23;2.77;;;20.50;95.10;;;;;;5068743;28;20504;-70
2022/08/28 07:31:09;;;;;;;2.80;2.60;;;20.50;95.10;;;;;;5053696;28;20504;-71
2022/08/28 07:33:36;;;;;;;4.63;3.13;;;20.60;95.10;;;;;;5067012;28;20246;-70
2022/08/28 07:36:05;;;;;;;3.70;2.70;;;20.60;94.90;;;;;;5086339;28;20545;-70
2022/08/28 07:38:31;;;;;;;4.87;2.93;;;20.70;94.80;;;;;;5082175;28;20484;-71
2022/08/28 07:40:57;;;;;;;3.00;2.40;;;20.70;94.90;;;;;;5069556;28;20823;-70
2022/08/28 07:46:10;;;;;;;5.33;2.93;;;20.90;94.80;;;;;;5067676;28;20215;-70
2022/08/28 07:48:38;;;;;;;3.00;2.70;;;20.90;94.60;;;;;;5062685;28;20444;-70
2022/08/28 07:51:06;;;;;;;3.77;2.73;;;21.00;94.60;;;;;;5071180;28;21005;-71
2022/08/28 07:53:31;;;;;;;2.80;2.60;;;21.00;94.50;;;;;;5068360;27;20912;-70
2022/08/28 07:55:57;;;;;;;3.50;2.73;;;21.10;94.50;;;;;;5052698;28;20541;-70
2022/08/28 07:58:27;;;;;;;4.93;3.37;;;21.10;94.30;;;;;;5071616;28;20298;-71
2022/08/28 08:00:53;;;;;;;6.90;3.03;;;21.20;94.40;;;;;;5053602;28;20457;-71
2022/08/28 08:03:20;;;;;;;4.53;2.67;;;21.30;94.30;;;;;;5067541;28;20470;-70
2022/08/28 08:05:54;;;;;;;3.57;3.20;;;21.30;94.30;;;;;;5075569;28;20475;-70
2022/08/28 08:08:20;;;;;;;5.47;2.87;;;21.40;94.20;;;;;;5072573;28;20465;-70
2022/08/28 08:10:59;;;;;;;3.30;3.00;;;21.40;94.10;;;;;;5072782;27;20519;-70
2022/08/28 08:13:26;;;;;;;3.10;2.80;;;21.40;93.60;;;;;;5049795;27;20452;-71
2022/08/28 08:15:52;;;;;;;3.87;3.40;;;21.40;93.90;;;;;;5071929;28;20453;-69
2022/08/28 08:18:17;;;;;;;3.93;3.30;;;21.50;93.70;;;;;;5073953;27;20780;-70
2022/08/28 08:20:43;;;;;;;3.10;2.80;;;21.50;93.70;;;;;;5094829;27;20243;-70
2022/08/28 08:23:09;;;;;;;3.10;2.33;;;21.60;93.80;;;;;;5067990;28;20230;-70
2022/08/28 08:25:35;;;;;;;8.30;3.13;;;21.70;93.70;;;;;;5061852;27;20252;-69
2022/08/28 08:28:02;;;;;;;7.30;3.57;;;21.80;93.60;;;;;;5076530;28;20210;-71
2022/08/28 08:30:28;;;;;;;4.93;3.00;;;21.90;93.60;;;;;;5078232;27;20214;-70
2022/08/28 08:32:54;;;;;;;4.30;2.73;;;21.90;93.30;;;;;;5056695;28;20567;-69
2022/08/28 08:35:20;;;;;;;3.20;3.00;;;22.00;93.20;;;;;;5070606;28;20705;-70
2022/08/28 08:37:46;;;;;;;3.90;3.37;;;22.00;93.10;;;;;;5070625;28;20211;-71
2022/08/28 08:40:17;;;;;;;4.97;3.23;;;22.10;93.10;;;;;;5065590;28;20219;-71
2022/08/28 08:42:46;;;;;;;2.83;2.37;;;22.10;93.00;;;;;;5075887;27;20477;-70
2022/08/28 08:45:17;;;;;;;4.53;3.13;;;22.10;92.90;;;;;;5086597;27;20995;-71
2022/08/28 08:47:50;;;;;;;3.00;2.77;;;22.10;92.80;;;;;;5069325;28;20425;-71
2022/08/28 08:50:20;;;;;;;3.90;3.00;;;22.00;92.40;;;;;;5073951;28;20441;-69
2022/08/28 08:53:21;;;;;;;4.63;4.03;;;22.10;92.60;;;;;;5084382;27;20444;-70
2022/08/28 08:55:52;;;;;;;3.30;3.00;;;22.00;92.20;;;;;;5070508;28;20449;-70
2022/08/28 08:58:38;;;;;;;4.73;3.20;;;22.10;92.40;;;;;;5045654;28;20501;-70
2022/08/28 09:01:08;;;;;;;3.43;3.10;;;22.20;92.30;;;;;;5075392;28;20496;-70
2022/08/28 09:03:58;;;;;;;4.63;3.20;;;22.20;92.10;;;;;;5046480;27;20454;-70
2022/08/28 09:06:50;;;;;;;3.57;3.27;;;22.20;92.00;;;;;;5082024;27;20905;-70
2022/08/28 09:09:39;;;;;;;2.87;2.60;;;22.10;91.70;;;;;;5070192;28;20801;-70
2022/08/28 09:12:08;;;;;;;3.93;2.60;;;22.10;91.50;;;;;;5074537;28;20456;-70
2022/08/28 09:15:04;;;;;;;4.33;2.93;;;22.00;91.70;;;;;;5072659;27;20547;-70
2022/08/28 09:17:53;;;;;;;3.10;2.90;;;22.00;91.70;;;;;;5064190;28;20985;-69
2022/08/28 09:20:23;;;;;;;6.57;2.97;;;22.10;91.60;;;;;;5060351;28;20465;-71
2022/08/28 09:22:48;;;;;;;4.13;2.53;;;22.10;91.40;;;;;;5067714;28;20450;-70
2022/08/28 09:25:48;;;;;;;7.40;3.47;;;22.20;91.50;;;;;;5064719;28;20522;-70
2022/08/28 09:28:49;;;;;;;2.80;2.60;;;22.20;90.80;;;;;;5052443;28;20230;-70
2022/08/28 09:31:31;;;;;;;3.10;2.60;;;22.20;91.10;;;;;;5068858;28;20871;-69
2022/08/28 09:34:31;;;;;;;4.00;3.03;;;22.30;91.10;;;;;;5063729;28;20881;-69
2022/08/28 09:36:59;;;;;;;3.70;3.30;;;22.40;91.10;;;;;;5076167;28;20458;-69
2022/08/28 09:39:34;;;;;;;4.90;2.93;;;22.50;91.10;;;;;;5056943;28;20456;-71
2022/08/28 09:45:20;;;;;;;3.80;3.50;;;22.60;90.60;;;;;;5064500;28;20445;-71
2022/08/28 09:47:56;;;;;;;2.60;2.20;;;22.70;90.50;;;;;;5062472;28;20457;-71
2022/08/28 09:50:30;;;;;;;3.43;2.80;;;22.80;90.50;;;;;;5056175;28;20988;-71
2022/08/28 09:53:18;;;;;;;3.10;2.80;;;22.80;90.10;;;;;;5065244;28;20536;-71
2022/08/28 09:55:49;;;;;;;5.80;3.00;;;22.90;90.00;;;;;;5033504;27;20475;-70
2022/08/28 09:58:15;;;;;;;4.10;3.00;;;23.00;90.10;;;;;;5082459;28;20488;-70
2022/08/28 10:00:53;;;;;;;8.60;2.90;;;23.10;90.20;;;;;;5058395;28;20480;-71
2022/08/28 10:03:51;;;;;;;4.73;2.83;;;23.30;90.00;;;;;;5048275;28;20528;-70
2022/08/28 10:06:21;;;;;;;5.20;3.37;;;23.30;89.30;;;;;;4994072;28;20970;-70
2022/08/28 10:09:05;;;;;;;4.07;2.97;;;23.50;89.20;;;;;;5055985;28;20453;-70
2022/08/28 10:11:48;;;;;;;3.50;2.60;;;23.50;88.30;;;;;;5060220;28;20454;-71
2022/08/28 10:14:30;;;;;;;3.67;3.00;;;23.60;87.90;;;;;;5064064;28;20474;-70
2022/08/28 10:17:27;;;;;;;4.63;2.70;;;23.70;87.20;;;;;;5052600;28;20450;-70
2022/08/28 10:20:13;;;;;;;3.03;2.80;;;23.80;87.60;;;;;;5041790;28;20449;-70
2022/08/28 10:22:49;;;;;;;4.60;2.90;;;23.80;87.10;;;;;;5035041;28;20481;-71
2022/08/28 10:25:20;;;;;;;2.67;2.47;;;24.00;87.40;;;;;;5061267;28;20457;-70
2022/08/28 10:28:08;;;;;;;3.30;2.90;;;24.10;86.60;;;;;;5061918;28;21071;-70
2022/08/28 10:30:41;;;;;;;3.77;2.87;;;24.20;86.30;;;;;;5075346;28;20454;-70
2022/08/28 10:33:27;;;;;;;2.60;2.40;;;24.30;85.40;;;;;;5060580;28;20457;-70
2022/08/28 10:36:24;;;;;;;2.50;2.30;;;24.30;84.40;;;;;;5058111;28;20521;-70
2022/08/28 10:39:16;;;;;;;3.57;2.70;;;24.20;83.00;;;;;;5052760;28;20544;-70
2022/08/28 10:41:44;;;;;;;4.97;2.90;;;24.20;83.40;;;;;;5058902;28;20531;-70
2022/08/28 10:44:16;;;;;;;5.33;2.53;;;24.20;84.40;;;;;;5055623;28;20473;-70
2022/08/28 10:46:47;;;;;;;3.37;3.07;;;24.40;84.90;;;;;;5060844;28;20457;-70
2022/08/28 10:49:41;;;;;;;3.00;2.80;;;24.50;84.20;;;;;;5073630;28;20464;-71
2022/08/28 10:52:20;;;;;;;3.07;2.73;;;24.60;83.80;;;;;;5060286;28;20472;-71
2022/08/28 10:54:54;;;;;;;2.77;2.57;;;24.70;84.40;;;;;;5064577;28;20537;-70
2022/08/28 10:57:33;;;;;;;3.03;2.83;;;24.90;83.80;;;;;;5049135;28;20466;-70
2022/08/28 11:00:08;;;;;;;4.50;2.80;;;25.00;83.30;;;;;;5049084;28;20543;-70
2022/08/28 11:02:35;;;;;;;3.27;2.07;;;25.10;83.90;;;;;;5043130;28;20997;-71
2022/08/28 11:05:02;;;;;;;3.40;2.33;;;25.20;82.30;;;;;;5067787;28;20842;-71
2022/08/28 11:07:37;;;;;;;3.10;2.80;;;25.00;79.10;;;;;;5065755;28;20945;-71
2022/08/28 11:10:35;;;;;;;2.90;2.57;;;24.90;79.30;;;;;;5067987;28;20442;-71
2022/08/28 11:13:03;;;;;;;3.10;2.80;;;24.90;80.10;;;;;;5049515;28;20959;-70
2022/08/28 11:15:31;;;;;;;3.70;3.00;;;24.90;79.10;;;;;;5055031;28;20456;-71
2022/08/28 11:18:12;;;;;;;3.63;2.90;;;25.00;79.50;;;;;;5067876;28;20449;-70
2022/08/28 11:20:40;;;;;;;4.30;2.80;;;25.10;79.20;;;;;;5041626;28;20504;-70
2022/08/28 11:23:35;;;;;;;4.70;3.10;;;25.10;77.80;;;;;;5067843;28;20453;-71
2022/08/28 11:26:07;;;;;;;4.23;2.87;;;25.20;78.50;;;;;;5062955;28;20510;-70
2022/08/28 11:28:33;;;;;;;3.50;3.13;;;25.30;78.90;;;;;;5083248;28;20833;-70
2022/08/28 11:31:04;;;;;;;5.73;2.57;;;25.30;76.10;;;;;;5064027;28;20453;-71
2022/08/28 11:33:47;;;;;;;3.83;2.70;;;25.30;77.70;;;;;;5077345;28;20219;-71
2022/08/28 11:36:19;;;;;;;2.73;2.30;;;25.50;78.00;;;;;;5077503;28;20560;-70
2022/08/28 11:38:45;;;;;;;3.67;2.67;;;25.60;78.20;;;;;;5059407;28;20467;-70
2022/08/28 11:41:21;;;;;;;2.80;2.60;;;25.70;76.40;;;;;;5054352;28;20489;-71
2022/08/28 11:44:10;;;;;;;3.90;2.90;;;25.70;76.40;;;;;;5041464;27;20458;-71
2022/08/28 11:46:43;;;;;;;3.47;3.10;;;25.80;75.40;;;;;;5079535;28;21151;-71
2022/08/28 11:49:28;;;;;;;3.00;2.70;;;25.90;76.70;;;;;;5070864;28;20461;-69
2022/08/28 11:52:05;;;;;;;3.37;2.10;;;26.10;76.40;;;;;;5062719;28;20455;-71
2022/08/28 11:54:52;;;;;;;3.87;3.13;;;26.00;75.70;;;;;;5070222;28;20454;-71
2022/08/28 11:57:38;;;;;;;4.13;2.67;;;26.20;76.60;;;;;;5071198;28;20453;-71
2022/08/28 12:00:10;;;;;;;2.67;2.47;;;26.40;76.20;;;;;;5051393;28;20459;-71
2022/08/28 12:02:46;;;;;;;2.40;2.20;;;26.50;75.30;;;;;;5067102;28;20551;-71
2022/08/28 12:05:15;;;;;;;3.33;3.03;;;26.30;73.90;;;;;;5052416;28;20519;-70
2022/08/28 12:07:44;;;;;;;4.33;2.80;;;26.30;73.00;;;;;;5044953;28;20486;-70
2022/08/28 12:10:19;;;;;;;2.60;2.40;;;26.50;74.50;;;;;;5067767;28;20461;-71
2022/08/28 12:12:45;;;;;;;3.23;2.77;;;26.70;73.80;;;;;;5053488;28;20464;-71
2022/08/28 12:15:26;;;;;;;5.27;2.90;;;26.90;72.80;;;;;;5059872;28;20457;-70
2022/08/28 12:17:54;;;;;;;4.70;3.70;;;27.10;71.90;;;;;;5069853;28;20222;-70
2022/08/28 12:20:28;;;;;;;3.20;2.87;;;27.10;70.90;;;;;;5086497;28;20449;-71
2022/08/28 12:22:58;;;;;;;2.60;2.40;;;27.10;71.90;;;;;;5061999;28;20230;-70
2022/08/28 12:25:42;;;;;;;6.03;2.80;;;27.20;71.70;;;;;;5086681;28;20463;-71
2022/08/28 12:28:21;;;;;;;3.13;2.80;;;27.20;71.40;;;;;;5064600;28;21017;-70
2022/08/28 12:31:13;;;;;;;2.70;2.50;;;26.90;70.00;;;;;;5084521;28;20441;-71
2022/08/28 12:33:51;;;;;;;4.27;3.17;;;26.90;70.00;;;;;;5069853;27;20500;-70
2022/08/28 12:36:17;;;;;;;4.10;3.20;;;26.90;69.60;;;;;;5051749;28;20452;-70
2022/08/28 12:38:52;;;;;;;3.47;2.90;;;26.70;69.50;;;;;;5065093;28;20470;-71
2022/08/28 12:41:19;;;;;;;3.60;2.80;;;26.70;69.80;;;;;;5088257;28;20476;-71
2022/08/28 12:43:49;;;;;;;4.00;2.90;;;26.70;69.20;;;;;;5069162;28;21095;-71
2022/08/28 12:46:28;;;;;;;3.03;2.73;;;26.60;69.20;;;;;;5085998;28;20466;-70
2022/08/28 12:49:00;;;;;;;3.30;3.00;;;26.60;69.70;;;;;;5060431;28;20831;-70
2022/08/28 12:51:35;;;;;;;3.17;2.77;;;26.70;69.90;;;;;;5069452;28;20460;-71
2022/08/28 12:54:07;;;;;;;3.27;2.97;;;27.00;70.10;;;;;;5067172;28;20455;-71
2022/08/28 12:56:35;;;;;;;3.17;2.90;;;27.10;70.10;;;;;;5060857;28;20459;-71
2022/08/28 12:59:39;;;;;;;2.70;2.40;;;27.20;70.00;;;;;;5063171;28;20960;-70
2022/08/28 13:02:27;;;;;;;3.43;3.13;;;27.20;69.50;;;;;;5046018;28;20471;-70
2022/08/28 13:05:00;;;;;;;3.00;2.80;;;27.10;68.40;;;;;;5051268;28;20986;-70
2022/08/28 13:07:33;;;;;;;3.90;2.70;;;27.00;67.90;;;;;;5069571;28;20539;-70
2022/08/28 13:10:20;;;;;;;2.73;2.53;;;27.00;68.90;;;;;;5050854;28;20516;-71
2022/08/28 13:12:52;;;;;;;3.23;2.93;;;26.90;68.10;;;;;;5068468;28;20444;-70
2022/08/28 13:16:06;;;;;;;3.43;2.77;;;27.00;68.50;;;;;;5068206;28;20496;-70
2022/08/28 13:18:37;;;;;;;3.40;2.67;;;27.00;68.30;;;;;;5060564;28;20480;-71